createdAt,value
2019-01-14T00:03:52.117Z,98944.19
2019-01-14T00:08:48.062Z,98947.41
2019-01-14T00:13:44.060Z,98965.84
2019-01-14T00:18:39.963Z,98980.59
2019-01-14T00:23:35.861Z,98985.52
2019-01-14T00:28:31.752Z,99003.66
2019-01-14T00:33:27.794Z,99030.08
2019-01-14T00:38:23.686Z,99014.36
2019-01-14T00:43:20.239Z,99031.23
2019-01-14T00:48:16.101Z,99045.81
2019-01-14T00:53:11.999Z,99058.16
2019-01-14T00:58:07.901Z,99070.94
2019-01-14T01:03:03.890Z,99084.09
2019-01-14T01:07:59.823Z,99097.14
2019-01-14T01:12:55.718Z,99108.39
2019-01-14T01:17:51.622Z,99117.55
2019-01-14T01:22:47.710Z,99128.22
2019-01-14T01:27:43.703Z,99131.55
2019-01-14T01:32:39.801Z,99140.49
2019-01-14T01:37:35.704Z,99145.92
2019-01-14T01:42:31.594Z,99156.46
2019-01-14T01:47:27.499Z,99157.39
2019-01-14T01:52:23.390Z,99168.63
2019-01-14T01:57:19.293Z,99190.91
2019-01-14T02:02:15.211Z,99206.45
2019-01-14T02:07:11.111Z,99211.67
2019-01-14T02:12:07.004Z,99241.28
2019-01-14T02:17:03.095Z,99258.36
2019-01-14T02:21:58.993Z,99254.20
2019-01-14T02:26:54.889Z,99266.04
2019-01-14T02:31:50.808Z,99275.91
2019-01-14T02:36:48.517Z,99282.66
2019-01-14T02:41:44.623Z,99284.75
2019-01-14T02:46:40.514Z,99297.00
2019-01-14T02:51:36.966Z,99311.55
2019-01-14T02:56:32.822Z,99321.30
2019-01-14T03:01:28.761Z,99337.75
2019-01-14T03:06:24.634Z,99346.83
2019-01-14T03:11:20.529Z,99352.36
2019-01-14T03:16:16.528Z,99356.89
2019-01-14T03:21:12.418Z,99378.08
2019-01-14T03:26:08.321Z,99381.98
2019-01-14T03:31:04.325Z,99399.33
2019-01-14T03:36:00.308Z,99398.38
2019-01-14T03:40:56.836Z,99406.59
2019-01-14T03:45:52.700Z,99402.76
2019-01-14T03:50:48.692Z,99408.36
2019-01-14T03:55:44.590Z,99409.66
2019-01-14T04:00:40.511Z,99412.13
2019-01-14T04:05:36.629Z,99422.09
2019-01-14T04:10:32.517Z,99418.57
2019-01-14T04:15:28.420Z,99431.89
2019-01-14T04:20:24.349Z,99444.27
2019-01-14T04:25:20.227Z,99450.08
2019-01-14T04:30:21.387Z,99444.53
2019-01-14T04:35:17.781Z,99452.42
2019-01-14T04:40:14.270Z,99451.38
2019-01-14T04:45:13.221Z,99455.30
2019-01-14T04:50:12.724Z,99458.82
2019-01-14T04:55:08.918Z,99464.52
2019-01-14T05:00:08.633Z,99460.60
2019-01-14T05:05:05.824Z,99482.68
2019-01-14T05:10:05.207Z,99476.11
2019-01-14T05:15:01.181Z,99481.20
2019-01-14T05:19:57.805Z,99485.61
2019-01-14T05:24:53.656Z,99489.20
2019-01-14T05:29:49.591Z,99505.22
2019-01-14T05:34:45.477Z,99508.24
2019-01-14T05:39:41.375Z,99508.81
2019-01-14T05:44:37.281Z,99525.81
2019-01-14T05:49:34.612Z,99522.89
2019-01-14T05:54:30.470Z,99536.81
2019-01-14T05:59:26.426Z,99532.77
2019-01-14T06:04:22.315Z,99537.53
2019-01-14T06:09:18.209Z,99542.67
2019-01-14T06:14:14.563Z,99557.64
2019-01-14T06:19:11.371Z,99560.59
2019-01-14T06:24:07.819Z,99566.55
2019-01-14T06:29:04.261Z,99577.48
2019-01-14T06:34:00.122Z,99591.67
2019-01-14T06:38:56.229Z,99598.19
2019-01-14T06:43:52.123Z,99598.47
2019-01-14T06:48:49.441Z,99602.97
2019-01-14T06:53:45.529Z,99601.66
2019-01-14T06:58:41.446Z,99608.18
2019-01-14T07:03:37.483Z,99613.25
2019-01-14T07:08:33.378Z,99621.53
2019-01-14T07:13:29.277Z,99622.51
2019-01-14T07:18:25.189Z,99613.39
2019-01-14T07:23:21.076Z,99633.44
2019-01-14T07:28:16.978Z,99648.94
2019-01-14T07:33:12.874Z,99662.09
2019-01-14T07:38:08.766Z,99682.48
2019-01-14T07:43:04.664Z,99700.08
2019-01-14T07:48:00.553Z,99723.31
2019-01-14T07:52:56.468Z,99722.31
2019-01-14T07:57:52.368Z,99732.23
2019-01-14T08:02:48.251Z,99730.61
2019-01-14T08:07:44.564Z,99739.58
2019-01-14T08:12:40.555Z,99740.41
2019-01-14T08:17:36.465Z,99746.99
2019-01-14T08:22:32.371Z,99748.52
2019-01-14T08:27:28.265Z,99742.36
2019-01-14T08:32:24.157Z,99760.33
2019-01-14T08:37:20.150Z,99783.69
2019-01-14T08:42:16.542Z,99792.69
2019-01-14T08:47:12.435Z,99797.42
2019-01-14T08:52:08.330Z,99794.79
2019-01-14T08:57:04.317Z,99802.09
2019-01-14T09:02:00.313Z,99809.91
2019-01-14T09:06:56.179Z,99809.94
2019-01-14T09:11:52.170Z,99824.84
2019-01-14T09:16:48.078Z,99818.72
2019-01-14T09:21:43.971Z,99830.47
2019-01-14T09:26:39.962Z,99832.00
2019-01-14T09:31:35.898Z,99852.41
2019-01-14T09:36:31.947Z,99863.72
2019-01-14T09:41:27.806Z,99878.58
2019-01-14T09:46:23.798Z,99871.53
2019-01-14T09:51:19.709Z,99874.17
2019-01-14T09:56:15.600Z,99874.44
2019-01-14T10:01:11.539Z,99888.49
2019-01-14T10:06:07.526Z,99888.72
2019-01-14T10:11:03.622Z,99879.41
2019-01-14T10:15:59.510Z,99895.68
2019-01-14T10:20:55.422Z,99894.62
2019-01-14T10:25:51.633Z,99906.25
2019-01-14T10:30:47.585Z,99905.22
2019-01-14T10:35:43.450Z,99919.63
2019-01-14T10:40:39.361Z,99917.58
2019-01-14T10:45:35.257Z,99906.55
2019-01-14T10:50:31.175Z,99915.19
2019-01-14T10:55:27.187Z,99926.32
2019-01-14T11:00:24.710Z,99926.32
2019-01-14T11:05:26.567Z,99925.70
2019-01-14T11:10:22.558Z,99920.97
2019-01-14T11:15:20.162Z,99918.67
2019-01-14T11:20:18.757Z,99924.27
2019-01-14T11:25:14.847Z,99916.08
2019-01-14T11:30:24.782Z,99923.35
2019-01-14T11:35:20.674Z,99916.72
2019-01-14T11:40:18.981Z,99927.92
2019-01-14T11:45:14.973Z,99932.94
2019-01-14T11:50:13.210Z,99931.20
2019-01-14T11:55:09.302Z,99935.44
2019-01-14T12:00:09.042Z,99941.75
2019-01-14T12:05:06.758Z,99987.34
2019-01-14T12:10:04.854Z,99999.48
2019-01-14T12:15:00.847Z,99991.52
2019-01-14T12:19:56.761Z,99979.59
2019-01-14T12:24:52.658Z,99981.38
2019-01-14T12:29:48.573Z,99975.80
2019-01-14T12:34:44.451Z,99988.05
2019-01-14T12:39:40.358Z,99986.63
2019-01-14T12:44:36.253Z,100000.91
2019-01-14T12:49:32.867Z,99999.59
2019-01-14T12:54:28.721Z,99996.58
2019-01-14T12:59:24.613Z,100003.69
2019-01-14T13:04:20.505Z,99993.84
2019-01-14T13:09:16.396Z,100017.95
2019-01-14T13:14:12.316Z,100023.22
2019-01-14T13:19:08.907Z,100017.33
2019-01-14T13:24:04.898Z,100013.67
2019-01-14T13:29:00.824Z,99995.43
2019-01-14T13:33:56.711Z,100016.80
2019-01-14T13:38:52.618Z,100030.44
2019-01-14T13:43:48.611Z,100012.76
2019-01-14T13:48:45.989Z,100023.41
2019-01-14T13:53:41.993Z,100035.74
2019-01-14T13:58:37.880Z,100059.54
2019-01-14T14:03:33.820Z,100105.63
2019-01-14T14:08:29.717Z,100080.80
2019-01-14T14:13:25.615Z,100074.41
2019-01-14T14:18:21.502Z,100079.88
2019-01-14T14:23:17.464Z,100077.34
2019-01-14T14:28:16.918Z,100101.59
2019-01-14T14:33:12.911Z,100115.80
2019-01-14T14:38:09.127Z,100132.40
2019-01-14T14:43:05.115Z,100136.94
2019-01-14T14:48:01.111Z,100145.46
2019-01-14T14:52:57.785Z,100189.34
2019-01-14T14:57:54.329Z,100172.84
2019-01-14T15:02:51.018Z,100180.02
2019-01-14T15:07:47.612Z,100180.70
2019-01-14T15:12:44.084Z,100189.48
2019-01-14T15:17:41.027Z,100184.28
2019-01-14T15:22:37.601Z,100193.35
2019-01-14T15:27:34.303Z,100200.16
2019-01-14T15:32:30.829Z,100198.59
2019-01-14T15:37:27.657Z,100228.19
2019-01-14T15:42:24.123Z,100221.73
2019-01-14T15:47:20.705Z,100251.70
2019-01-14T15:52:17.192Z,100251.27
2019-01-14T15:57:13.631Z,100260.33
2019-01-14T16:02:10.053Z,100274.69
2019-01-14T16:07:06.560Z,100275.33
2019-01-14T16:12:03.041Z,100283.41
2019-01-14T16:16:59.529Z,100289.59
2019-01-14T16:21:55.537Z,100289.25
2019-01-14T16:26:53.150Z,100289.77
2019-01-14T16:31:49.696Z,100295.46
2019-01-14T16:36:46.237Z,100292.98
2019-01-14T16:41:42.742Z,100292.50
2019-01-14T16:46:39.366Z,100309.98
2019-01-14T16:51:35.259Z,100305.45
2019-01-14T16:56:31.681Z,100308.98
2019-01-14T17:01:27.561Z,100337.61
2019-01-14T17:06:24.065Z,100340.56
2019-01-14T17:11:20.175Z,100332.77
2019-01-14T17:16:16.447Z,100339.29
2019-01-14T17:21:12.972Z,100349.05
2019-01-14T17:26:08.865Z,100361.66
2019-01-14T17:31:04.778Z,100360.82
2019-01-14T17:36:00.703Z,100374.82
2019-01-14T17:40:56.597Z,100384.44
2019-01-14T17:45:52.494Z,100394.50
2019-01-14T17:50:48.385Z,100394.03
2019-01-14T17:55:44.276Z,100389.19
2019-01-14T18:00:40.875Z,100397.00
2019-01-14T18:05:36.771Z,100415.06
2019-01-14T18:10:39.662Z,100414.25
2019-01-14T18:15:31.817Z,100416.84
2019-01-14T18:20:28.210Z,100427.29
2019-01-14T18:25:24.818Z,100423.59
2019-01-14T18:30:20.762Z,100426.35
2019-01-14T18:35:17.205Z,100437.73
2019-01-14T18:40:14.794Z,100438.05
2019-01-14T18:45:12.701Z,100438.08
2019-01-14T18:50:17.577Z,100441.34
2019-01-14T18:55:23.756Z,100453.68
2019-01-14T19:00:35.869Z,100468.01
2019-01-14T19:05:34.282Z,100475.78
2019-01-14T19:10:55.624Z,100481.91
2019-01-14T19:15:57.252Z,100487.75
2019-01-14T19:20:53.825Z,100493.47
2019-01-14T19:25:53.263Z,100503.75
2019-01-14T19:30:49.897Z,100508.89
2019-01-14T19:35:45.778Z,100506.63
2019-01-14T19:40:42.443Z,100503.20
2019-01-14T19:45:38.473Z,100503.64
2019-01-14T19:50:34.466Z,100508.81
2019-01-14T19:55:30.386Z,100513.02
2019-01-14T20:00:28.232Z,100515.28
2019-01-14T20:05:24.486Z,100528.66
2019-01-14T20:10:20.402Z,100534.38
2019-01-14T20:15:18.407Z,100550.47
2019-01-14T20:20:16.014Z,100557.78
2019-01-14T20:25:12.365Z,100564.66
2019-01-14T20:30:11.558Z,100573.57
2019-01-14T20:35:07.565Z,100573.27
2019-01-14T20:40:07.436Z,100577.20
2019-01-14T20:45:05.999Z,100585.42
2019-01-14T20:50:09.982Z,100589.83
2019-01-14T20:55:07.106Z,100598.95
2019-01-14T21:00:38.070Z,100599.92
2019-01-14T21:05:34.558Z,100594.06
2019-01-14T21:10:31.307Z,100599.42
2019-01-14T21:15:27.211Z,100602.21
2019-01-14T21:20:23.256Z,100609.95
2019-01-14T21:25:19.652Z,100611.40
2019-01-14T21:30:21.401Z,100604.02
2019-01-14T21:35:17.856Z,100595.58
2019-01-14T21:40:13.953Z,100599.78
2019-01-14T21:45:12.015Z,100597.80
2019-01-14T21:50:13.217Z,100596.73
2019-01-14T21:55:12.448Z,100600.20
2019-01-14T22:00:11.849Z,100603.69
2019-01-14T22:05:07.852Z,100599.44
2019-01-14T22:10:13.155Z,100610.18
2019-01-14T22:15:10.710Z,100610.14
2019-01-14T22:20:12.867Z,100622.26
2019-01-14T22:25:08.957Z,100627.84
2019-01-14T22:30:14.164Z,100634.03
2019-01-14T22:35:10.160Z,100645.92
2019-01-14T22:40:09.601Z,100646.38
2019-01-14T22:45:08.225Z,100649.37
2019-01-14T22:50:07.744Z,100651.36
2019-01-14T22:55:06.032Z,100659.16
2019-01-14T23:00:10.416Z,100651.70
2019-01-14T23:05:06.424Z,100657.74
2019-01-14T23:10:06.520Z,100645.89
2019-01-14T23:15:07.974Z,100639.62
2019-01-14T23:20:06.797Z,100642.56
2019-01-14T23:25:06.767Z,100649.71
2019-01-14T23:30:10.032Z,100647.56
2019-01-14T23:35:07.102Z,100650.41
2019-01-14T23:40:05.107Z,100654.11
2019-01-14T23:45:01.101Z,100656.94
2019-01-14T23:49:57.829Z,100658.38
2019-01-14T23:54:53.688Z,100668.34
2019-01-14T23:59:49.616Z,100668.85
